createdAt,value
2022-08-14T00:06:28.754Z,19.14
2022-08-14T00:09:40.020Z,19.15
2022-08-14T00:13:00.547Z,19.12
2022-08-14T00:16:41.107Z,19.08
2022-08-14T00:19:36.988Z,19.07
2022-08-14T00:22:57.581Z,19.04
2022-08-14T00:26:21.693Z,19.03
2022-08-14T00:29:30.285Z,19.02
2022-08-14T00:32:52.810Z,19.01
2022-08-14T00:36:39.341Z,18.99
2022-08-14T00:39:25.694Z,19.01
2022-08-14T00:42:55.767Z,18.98
2022-08-14T00:46:00.415Z,18.95
2022-08-14T00:49:17.090Z,18.91
2022-08-14T00:52:35.803Z,18.94
2022-08-14T00:55:56.083Z,18.98
2022-08-14T00:59:12.775Z,18.96
2022-08-14T01:06:30.054Z,18.97
2022-08-14T01:09:46.316Z,18.98
2022-08-14T01:13:03.376Z,18.99
2022-08-14T01:16:25.500Z,19.00
2022-08-14T01:19:55.260Z,19.00
2022-08-14T01:23:16.446Z,18.99
2022-08-14T01:26:35.744Z,19.00
2022-08-14T01:30:00.963Z,18.97
2022-08-14T01:33:09.682Z,18.94
2022-08-14T01:36:27.346Z,18.94
2022-08-14T01:39:45.133Z,18.91
2022-08-14T01:43:02.725Z,18.90
2022-08-14T01:46:24.542Z,18.89
2022-08-14T01:49:46.040Z,18.93
2022-08-14T01:52:58.473Z,18.90
2022-08-14T01:56:18.375Z,18.91
2022-08-14T01:59:39.192Z,18.87
2022-08-14T02:02:57.686Z,18.87
2022-08-14T02:06:33.113Z,18.87
2022-08-14T02:09:35.778Z,18.85
2022-08-14T02:12:57.409Z,18.83
2022-08-14T02:16:21.864Z,18.84
2022-08-14T02:22:53.656Z,18.83
2022-08-14T02:26:29.071Z,18.84
2022-08-14T02:29:56.081Z,18.83
2022-08-14T02:33:01.596Z,18.82
2022-08-14T02:37:04.886Z,18.81
2022-08-14T02:39:40.331Z,18.80
2022-08-14T02:42:57.619Z,18.83
2022-08-14T02:46:27.006Z,18.83
2022-08-14T02:52:57.082Z,18.81
2022-08-14T02:56:30.112Z,18.82
2022-08-14T02:59:36.149Z,18.79
2022-08-14T03:07:59.057Z,18.78
2022-08-14T03:11:17.665Z,18.73
2022-08-14T03:14:35.647Z,18.72
2022-08-14T03:17:57.198Z,18.71
2022-08-14T03:21:17.054Z,18.68
2022-08-14T03:24:33.254Z,18.63
2022-08-14T03:27:58.380Z,18.61
2022-08-14T03:31:13.431Z,18.64
2022-08-14T03:34:52.656Z,18.64
2022-08-14T03:39:10.701Z,18.64
2022-08-14T03:41:07.308Z,18.61
2022-08-14T03:45:18.632Z,18.61
2022-08-14T03:47:55.889Z,18.63
2022-08-14T03:54:20.526Z,18.65
2022-08-14T03:57:37.164Z,18.66
2022-08-14T04:00:54.040Z,18.68
2022-08-14T04:04:10.627Z,18.65
2022-08-14T04:07:32.751Z,18.66
2022-08-14T04:10:47.818Z,18.66
2022-08-14T04:14:06.262Z,18.65
2022-08-14T04:17:27.077Z,18.66
2022-08-14T04:20:54.467Z,18.66
2022-08-14T04:24:06.913Z,18.66
2022-08-14T04:27:24.115Z,18.66
2022-08-14T04:30:42.670Z,18.67
2022-08-14T04:33:59.338Z,18.67
2022-08-14T04:37:30.232Z,18.66
2022-08-14T04:41:00.801Z,18.65
2022-08-14T04:44:26.496Z,18.63
2022-08-14T04:47:53.769Z,18.64
2022-08-14T04:54:22.623Z,18.69
2022-08-14T04:57:41.404Z,18.73
2022-08-14T05:00:59.902Z,18.74
2022-08-14T05:04:20.012Z,18.72
2022-08-14T05:07:54.271Z,18.70
2022-08-14T05:10:57.449Z,18.74
2022-08-14T05:14:17.326Z,18.76
2022-08-14T05:17:43.953Z,18.78
2022-08-14T05:21:55.432Z,18.76
2022-08-14T05:24:16.837Z,18.72
2022-08-14T05:27:24.758Z,18.75
2022-08-14T05:30:42.864Z,18.81
2022-08-14T05:34:00.849Z,18.87
2022-08-14T05:37:17.302Z,18.91
2022-08-14T05:40:35.611Z,18.93
2022-08-14T05:43:53.129Z,18.90
2022-08-14T05:47:09.594Z,18.92
2022-08-14T05:53:42.932Z,19.00
2022-08-14T05:56:59.151Z,18.99
2022-08-14T06:00:28.403Z,19.04
2022-08-14T06:06:54.751Z,19.15
2022-08-14T06:10:15.609Z,19.23
2022-08-14T06:13:41.087Z,19.28
2022-08-14T06:16:53.422Z,19.27
2022-08-14T06:20:10.472Z,19.32
2022-08-14T06:23:27.370Z,19.31
2022-08-14T06:26:43.490Z,19.31
2022-08-14T06:30:01.542Z,19.30
2022-08-14T06:38:16.735Z,19.33
2022-08-14T06:41:56.733Z,19.41
2022-08-14T06:44:49.185Z,19.44
2022-08-14T06:48:12.670Z,19.48
2022-08-14T06:54:41.377Z,19.53
2022-08-14T06:57:59.121Z,19.63
2022-08-14T07:01:29.823Z,19.72
2022-08-14T07:08:03.165Z,19.79
2022-08-14T07:11:20.495Z,19.84
2022-08-14T07:14:36.772Z,19.87
2022-08-14T07:17:58.670Z,19.89
2022-08-14T07:21:17.571Z,20.00
2022-08-14T07:24:33.788Z,20.07
2022-08-14T07:27:54.837Z,20.07
2022-08-14T07:31:16.533Z,20.03
2022-08-14T07:37:48.146Z,20.04
2022-08-14T07:41:14.512Z,20.09
2022-08-14T07:44:32.902Z,20.12
2022-08-14T07:47:50.893Z,20.09
2022-08-14T07:51:10.736Z,20.06
2022-08-14T07:54:30.263Z,20.04
2022-08-14T07:57:45.836Z,20.02
2022-08-14T08:01:05.629Z,20.02
2022-08-14T08:07:40.425Z,20.01
2022-08-14T08:11:02.923Z,19.97
2022-08-14T08:14:18.952Z,19.96
2022-08-14T08:17:34.718Z,19.94
2022-08-14T08:20:54.960Z,19.99
2022-08-14T08:24:18.430Z,20.10
2022-08-14T08:27:29.555Z,20.23
2022-08-14T08:30:49.622Z,20.40
2022-08-14T08:37:23.169Z,20.87
2022-08-14T08:40:44.417Z,21.00
2022-08-14T08:44:02.605Z,21.02
2022-08-14T08:47:20.608Z,21.01
2022-08-14T08:50:49.398Z,21.08
2022-08-14T08:54:18.628Z,21.08
2022-08-14T08:57:30.219Z,21.14
2022-08-14T09:00:54.456Z,21.19
2022-08-14T09:07:26.247Z,21.27
2022-08-14T09:10:44.785Z,21.29
2022-08-14T09:14:03.632Z,21.27
2022-08-14T09:17:26.125Z,21.36
2022-08-14T09:20:38.610Z,21.33
2022-08-14T09:24:29.165Z,21.61
2022-08-14T09:27:22.292Z,21.64
2022-08-14T09:30:34.070Z,21.77
2022-08-14T09:39:25.475Z,22.04
2022-08-14T09:43:01.769Z,21.94
2022-08-14T09:46:21.209Z,21.91
2022-08-14T09:53:02.057Z,21.93
2022-08-14T09:56:24.221Z,21.95
2022-08-14T09:59:51.027Z,22.03
2022-08-14T10:03:08.104Z,22.12
2022-08-14T10:06:38.463Z,22.84
2022-08-14T10:10:01.872Z,23.22
2022-08-14T10:13:28.266Z,23.58
2022-08-14T10:16:53.429Z,23.93
2022-08-14T10:20:40.572Z,24.36
2022-08-14T10:23:57.299Z,24.81
2022-08-14T10:27:24.016Z,25.13
2022-08-14T10:30:42.857Z,25.29
2022-08-14T10:39:17.073Z,25.55
2022-08-14T10:42:43.784Z,25.29
2022-08-14T10:47:37.103Z,25.16
2022-08-14T10:52:47.319Z,25.37
2022-08-14T10:56:21.698Z,25.67
2022-08-14T10:59:37.318Z,25.59
2022-08-14T11:02:55.484Z,25.88
2022-08-14T11:06:24.721Z,25.92
2022-08-14T11:09:42.143Z,26.01
2022-08-14T11:13:04.445Z,26.00
2022-08-14T11:16:22.342Z,25.88
2022-08-14T11:23:03.440Z,25.60
2022-08-14T11:26:19.932Z,25.47
2022-08-14T11:29:37.726Z,25.31
2022-08-14T11:32:57.967Z,25.09
2022-08-14T11:39:34.458Z,24.62
2022-08-14T11:42:59.618Z,24.38
2022-08-14T11:46:17.727Z,24.25
2022-08-14T11:50:36.286Z,24.10
2022-08-14T11:53:56.032Z,23.93
2022-08-14T11:57:14.464Z,23.85
2022-08-14T12:00:35.960Z,23.81
2022-08-14T12:03:57.321Z,23.82
2022-08-14T12:07:18.333Z,23.88
2022-08-14T12:10:41.033Z,23.92
2022-08-14T12:13:55.860Z,23.95
2022-08-14T12:17:15.909Z,23.95
2022-08-14T12:23:52.106Z,24.00
2022-08-14T12:27:16.883Z,24.02
2022-08-14T12:30:44.055Z,24.04
2022-08-14T12:34:11.110Z,24.06
2022-08-14T12:37:37.719Z,24.02
2022-08-14T12:41:01.199Z,24.02
2022-08-14T12:44:22.483Z,24.07
2022-08-14T12:47:40.374Z,24.11
2022-08-14T12:54:28.320Z,24.16
2022-08-14T12:57:53.241Z,24.21
2022-08-14T13:01:16.820Z,24.15
2022-08-14T13:04:30.686Z,24.13
2022-08-14T13:07:50.049Z,24.11
2022-08-14T13:11:10.751Z,24.05
2022-08-14T13:14:31.831Z,24.02
2022-08-14T13:17:54.827Z,24.05
2022-08-14T13:24:33.467Z,24.13
2022-08-14T13:27:54.607Z,24.04
2022-08-14T13:31:11.850Z,24.04
2022-08-14T13:34:31.663Z,24.03
2022-08-14T13:37:52.319Z,24.03
2022-08-14T13:41:10.550Z,24.10
2022-08-14T13:44:27.820Z,24.15
2022-08-14T13:47:46.672Z,24.16
2022-08-14T13:51:07.855Z,24.16
2022-08-14T13:54:26.965Z,24.20
2022-08-14T13:58:03.518Z,24.20
2022-08-14T14:01:08.420Z,24.21
2022-08-14T14:04:26.819Z,24.22
2022-08-14T14:07:47.219Z,24.21
2022-08-14T14:11:06.112Z,24.24
2022-08-14T14:14:44.935Z,24.26
2022-08-14T14:17:44.044Z,24.29
2022-08-14T14:24:17.300Z,24.30
2022-08-14T14:27:43.194Z,24.34
2022-08-14T14:31:01.361Z,24.36
2022-08-14T14:34:29.703Z,24.37
2022-08-14T14:37:38.254Z,24.36
2022-08-14T14:41:01.306Z,24.33
2022-08-14T14:44:18.858Z,24.30
2022-08-14T14:47:36.480Z,24.29
2022-08-14T14:54:10.258Z,24.33
2022-08-14T14:57:35.378Z,24.36
2022-08-14T15:00:49.335Z,24.38
2022-08-14T15:04:07.933Z,24.37
2022-08-14T15:07:25.395Z,24.38
2022-08-14T15:10:43.551Z,24.39
2022-08-14T15:14:54.859Z,24.43
2022-08-14T15:17:28.393Z,24.45
2022-08-14T15:20:43.878Z,24.49
2022-08-14T15:24:02.248Z,24.53
2022-08-14T15:27:26.139Z,24.53
2022-08-14T15:30:40.470Z,24.53
2022-08-14T15:34:43.056Z,24.53
2022-08-14T15:37:32.803Z,24.50
2022-08-14T15:40:51.447Z,24.49
2022-08-14T15:44:08.377Z,24.49
2022-08-14T15:47:28.050Z,24.49
2022-08-14T15:55:59.923Z,24.46
2022-08-14T15:59:18.575Z,24.46
2022-08-14T16:02:36.791Z,24.45
2022-08-14T16:12:41.244Z,24.43
2022-08-14T16:15:53.543Z,24.43
2022-08-14T16:19:09.747Z,24.44
2022-08-14T16:22:59.241Z,24.43
2022-08-14T16:25:47.510Z,24.43
2022-08-14T16:29:10.119Z,24.39
2022-08-14T16:32:32.511Z,24.38
2022-08-14T16:40:34.539Z,24.33
2022-08-14T16:43:59.612Z,24.33
2022-08-14T16:47:22.457Z,24.32
2022-08-14T16:50:44.553Z,24.29
2022-08-14T16:57:28.576Z,24.28
2022-08-14T17:00:48.614Z,24.25
2022-08-14T17:04:24.652Z,24.22
2022-08-14T17:07:29.075Z,24.19
2022-08-14T17:11:12.471Z,24.15
2022-08-14T17:14:33.136Z,24.11
2022-08-14T17:17:59.710Z,24.08
2022-08-14T17:24:57.702Z,24.02
2022-08-14T17:27:50.514Z,23.99
2022-08-14T17:31:10.316Z,23.94
2022-08-14T17:34:30.243Z,23.91
2022-08-14T17:37:55.962Z,23.88
2022-08-14T17:41:33.014Z,23.87
2022-08-14T17:44:46.589Z,23.86
2022-08-14T17:48:04.161Z,23.80
2022-08-14T17:51:24.071Z,23.75
2022-08-14T17:54:44.401Z,23.72
2022-08-14T17:58:00.315Z,23.67
2022-08-14T18:01:23.494Z,23.50
2022-08-14T18:04:38.355Z,23.26
2022-08-14T18:08:31.448Z,23.10
2022-08-14T18:11:18.156Z,22.96
2022-08-14T18:14:48.337Z,22.83
2022-08-14T18:17:57.237Z,22.78
2022-08-14T18:21:39.753Z,22.82
2022-08-14T18:24:34.423Z,22.88
2022-08-14T18:27:57.188Z,22.92
2022-08-14T18:31:45.401Z,22.93
2022-08-14T18:35:11.408Z,22.93
2022-08-14T18:38:46.446Z,22.92
2022-08-14T18:41:52.489Z,22.91
2022-08-14T18:45:26.381Z,22.90
2022-08-14T18:48:50.553Z,22.91
2022-08-14T18:52:11.061Z,22.89
2022-08-14T18:55:59.855Z,22.88
2022-08-14T18:59:43.056Z,22.77
2022-08-14T19:02:59.530Z,22.71
2022-08-14T19:11:11.164Z,22.34
2022-08-14T19:14:56.786Z,22.31
2022-08-14T19:18:38.284Z,22.14
2022-08-14T19:25:06.196Z,21.88
2022-08-14T19:28:35.228Z,21.83
2022-08-14T19:31:55.079Z,21.80
2022-08-14T19:35:18.288Z,21.84
2022-08-14T19:41:51.858Z,21.93
2022-08-14T19:45:06.433Z,21.90
2022-08-14T19:48:23.801Z,21.80
2022-08-14T19:51:49.736Z,21.74
2022-08-14T19:55:06.265Z,21.61
2022-08-14T19:58:30.058Z,21.57
2022-08-14T20:01:48.998Z,21.52
2022-08-14T20:05:12.470Z,21.57
2022-08-14T20:11:00.235Z,21.55
2022-08-14T20:12:02.585Z,21.54
2022-08-14T20:15:17.964Z,21.56
2022-08-14T20:18:48.826Z,21.52
2022-08-14T20:22:35.879Z,21.49
2022-08-14T20:25:25.993Z,21.50
2022-08-14T20:28:51.303Z,21.52
2022-08-14T20:32:00.973Z,21.40
2022-08-14T20:35:35.630Z,21.31
2022-08-14T20:42:15.476Z,21.40
2022-08-14T20:45:33.845Z,21.40
2022-08-14T20:49:04.283Z,21.42
2022-08-14T20:52:21.765Z,21.39
2022-08-14T20:55:45.100Z,21.37
2022-08-14T20:59:00.521Z,21.26
2022-08-14T21:02:50.680Z,21.18
2022-08-14T21:05:57.330Z,21.24
2022-08-14T21:12:32.675Z,21.20
2022-08-14T21:15:56.633Z,21.16
2022-08-14T21:19:07.140Z,21.13
2022-08-14T21:28:56.165Z,21.03
2022-08-14T21:32:20.556Z,20.96
2022-08-14T21:35:31.675Z,20.94
2022-08-14T21:42:06.826Z,20.86
2022-08-14T21:45:24.948Z,20.77
2022-08-14T21:48:44.361Z,20.70
2022-08-14T21:56:59.489Z,20.57
2022-08-14T22:00:30.155Z,20.53
2022-08-14T22:03:45.125Z,20.39
2022-08-14T22:07:00.891Z,20.31
2022-08-14T22:10:23.029Z,20.28
2022-08-14T22:13:46.762Z,20.07
2022-08-14T22:17:00.694Z,20.03
2022-08-14T22:20:19.269Z,19.98
2022-08-14T22:26:52.237Z,19.98
2022-08-14T22:30:13.335Z,19.95
2022-08-14T22:33:33.035Z,19.98
2022-08-14T22:36:53.136Z,19.98
2022-08-14T22:40:59.759Z,19.94
2022-08-14T22:43:41.721Z,19.93
2022-08-14T22:46:58.712Z,19.94
2022-08-14T22:50:31.638Z,19.94
2022-08-14T22:53:36.707Z,19.94
2022-08-14T22:56:54.852Z,19.92
2022-08-14T23:00:16.360Z,19.92
2022-08-14T23:03:34.813Z,19.90
2022-08-14T23:07:01.995Z,19.84
2022-08-14T23:10:33.971Z,19.77
2022-08-14T23:13:31.174Z,19.74
2022-08-14T23:16:58.705Z,19.68
2022-08-14T23:20:20.105Z,19.66
2022-08-14T23:23:36.462Z,19.64
2022-08-14T23:26:55.664Z,19.65
2022-08-14T23:30:33.957Z,19.60
2022-08-14T23:33:35.966Z,19.55
2022-08-14T23:36:57.850Z,19.48
2022-08-14T23:40:26.640Z,19.46
2022-08-14T23:43:36.631Z,19.44
2022-08-14T23:46:57.053Z,19.36
2022-08-14T23:50:34.384Z,19.25
2022-08-14T23:53:47.643Z,19.19
2022-08-14T23:57:00.155Z,19.19
